createdAt,value
2019-04-30T00:02:38.331Z,14.59
2019-04-30T00:05:00.195Z,14.51
2019-04-30T00:07:28.915Z,14.43
2019-04-30T00:09:57.799Z,14.53
2019-04-30T00:12:30.859Z,14.62
2019-04-30T00:14:57.138Z,14.66
2019-04-30T00:17:25.850Z,14.84
2019-04-30T00:19:58.732Z,14.92
2019-04-30T00:22:33.411Z,14.97
2019-04-30T00:24:55.717Z,14.99
2019-04-30T00:27:26.363Z,14.98
2019-04-30T00:29:55.793Z,14.86
2019-04-30T00:32:25.812Z,14.86
2019-04-30T00:37:32.285Z,15.07
2019-04-30T00:40:00.996Z,15.27
2019-04-30T00:42:29.719Z,15.45
2019-04-30T00:44:59.544Z,15.59
2019-04-30T00:47:28.912Z,15.67
2019-04-30T00:50:00.262Z,15.77
2019-04-30T00:52:29.450Z,15.82
2019-04-30T00:55:00.424Z,15.88
2019-04-30T00:57:28.949Z,16.00
2019-04-30T00:59:57.853Z,16.21
2019-04-30T01:02:32.224Z,16.32
2019-04-30T01:05:08.990Z,16.26
2019-04-30T01:07:40.062Z,16.27
2019-04-30T01:10:07.249Z,16.18
2019-04-30T01:12:43.722Z,16.16
2019-04-30T01:15:11.152Z,16.08
2019-04-30T01:17:40.857Z,16.04
2019-04-30T01:20:10.043Z,16.05
2019-04-30T01:22:38.939Z,16.06
2019-04-30T01:25:13.268Z,16.05
2019-04-30T01:27:45.306Z,16.03
2019-04-30T01:30:13.283Z,16.04
2019-04-30T01:32:40.180Z,16.14
2019-04-30T01:35:08.994Z,15.96
2019-04-30T01:37:38.706Z,15.38
2019-04-30T01:40:13.612Z,15.38
2019-04-30T01:42:42.816Z,15.31
2019-04-30T01:45:09.284Z,15.31
2019-04-30T01:47:39.611Z,15.13
2019-04-30T01:50:09.215Z,14.95
2019-04-30T01:52:53.379Z,14.72
2019-04-30T01:55:43.139Z,14.53
2019-04-30T01:58:25.383Z,14.36
2019-04-30T02:01:12.053Z,14.09
2019-04-30T02:03:40.771Z,13.91
2019-04-30T02:06:11.569Z,13.75
2019-04-30T02:08:39.964Z,13.74
2019-04-30T02:11:09.054Z,13.72
2019-04-30T02:13:39.230Z,13.71
2019-04-30T02:16:08.664Z,13.67
2019-04-30T02:18:39.298Z,13.64
2019-04-30T02:21:09.302Z,13.59
2019-04-30T02:23:39.228Z,13.57
2019-04-30T02:26:08.634Z,13.54
2019-04-30T02:28:39.276Z,13.42
2019-04-30T02:31:09.355Z,13.39
2019-04-30T02:33:40.431Z,13.36
2019-04-30T02:36:13.691Z,13.36
2019-04-30T02:38:49.727Z,13.37
2019-04-30T02:41:19.903Z,13.40
2019-04-30T02:43:51.437Z,13.42
2019-04-30T02:46:22.459Z,13.38
2019-04-30T02:48:53.983Z,13.40
2019-04-30T02:51:24.635Z,13.42
2019-04-30T02:54:11.221Z,13.37
2019-04-30T02:56:41.540Z,13.20
2019-04-30T02:59:10.532Z,13.23
2019-04-30T03:01:40.325Z,13.28
2019-04-30T03:04:09.962Z,13.16
2019-04-30T03:06:40.390Z,13.16
2019-04-30T03:09:10.383Z,13.10
2019-04-30T03:11:40.490Z,13.13
2019-04-30T03:14:10.606Z,13.10
2019-04-30T03:16:53.053Z,13.00
2019-04-30T03:19:31.017Z,13.05
2019-04-30T03:22:07.042Z,12.96
2019-04-30T03:24:35.802Z,12.94
2019-04-30T03:27:04.508Z,12.90
2019-04-30T03:29:33.216Z,12.87
2019-04-30T03:32:03.316Z,12.74
2019-04-30T03:34:33.941Z,12.68
2019-04-30T03:37:02.653Z,12.62
2019-04-30T03:39:33.866Z,12.69
2019-04-30T03:42:01.797Z,12.64
2019-04-30T03:44:32.441Z,12.62
2019-04-30T03:47:00.996Z,12.67
2019-04-30T03:49:30.008Z,12.69
2019-04-30T03:51:59.941Z,12.71
2019-04-30T03:54:29.429Z,13.04
2019-04-30T03:57:00.654Z,13.43
2019-04-30T03:59:30.196Z,13.83
2019-04-30T04:02:12.239Z,14.32
2019-04-30T04:04:54.932Z,14.94
2019-04-30T04:07:25.212Z,15.34
2019-04-30T04:10:04.732Z,15.54
2019-04-30T04:12:33.440Z,16.15
2019-04-30T04:15:03.969Z,16.48
2019-04-30T04:17:32.627Z,17.12
2019-04-30T04:20:01.344Z,17.85
2019-04-30T04:22:30.739Z,18.35
2019-04-30T04:25:00.278Z,18.89
2019-04-30T04:27:30.252Z,19.81
2019-04-30T04:30:01.074Z,20.63
2019-04-30T04:32:30.863Z,21.38
2019-04-30T04:35:00.397Z,21.56
2019-04-30T04:37:30.130Z,21.61
2019-04-30T04:39:59.687Z,22.02
2019-04-30T04:42:29.990Z,22.58
2019-04-30T04:44:59.468Z,22.25
2019-04-30T04:47:30.846Z,23.04
2019-04-30T04:50:00.745Z,22.23
2019-04-30T04:52:31.487Z,22.99
2019-04-30T04:55:00.575Z,23.80
2019-04-30T04:57:30.485Z,24.28
2019-04-30T05:00:05.029Z,23.37
2019-04-30T05:02:40.480Z,23.30
2019-04-30T05:05:09.744Z,24.35
2019-04-30T05:07:39.958Z,25.28
2019-04-30T05:10:09.302Z,25.69
2019-04-30T05:12:39.794Z,25.39
2019-04-30T05:15:09.559Z,24.68
2019-04-30T05:17:39.839Z,24.33
2019-04-30T05:20:10.011Z,24.87
2019-04-30T05:22:39.118Z,24.85
2019-04-30T05:25:08.933Z,25.00
2019-04-30T05:27:39.235Z,24.53
2019-04-30T05:30:09.698Z,24.69
2019-04-30T05:32:39.310Z,24.74
2019-04-30T05:35:09.539Z,24.98
2019-04-30T05:37:38.676Z,25.26
2019-04-30T05:40:09.215Z,25.10
2019-04-30T05:42:38.703Z,24.70
2019-04-30T05:45:09.393Z,24.67
2019-04-30T05:47:38.985Z,22.62
2019-04-30T05:50:08.980Z,22.50
2019-04-30T05:52:39.762Z,21.84
2019-04-30T05:55:08.842Z,20.76
2019-04-30T05:57:40.767Z,19.89
2019-04-30T06:00:09.914Z,19.43
2019-04-30T06:02:39.925Z,18.78
2019-04-30T06:05:09.495Z,19.06
2019-04-30T06:07:39.486Z,18.31
2019-04-30T06:10:19.290Z,18.34
2019-04-30T06:12:49.756Z,17.90
2019-04-30T06:15:31.982Z,17.83
2019-04-30T06:18:10.568Z,18.18
2019-04-30T06:20:31.130Z,18.07
2019-04-30T06:23:00.297Z,17.88
2019-04-30T06:25:40.845Z,18.03
2019-04-30T06:28:00.046Z,18.13
2019-04-30T06:30:29.851Z,18.39
2019-04-30T06:32:59.390Z,18.66
2019-04-30T06:35:29.396Z,18.63
2019-04-30T06:37:58.995Z,18.80
2019-04-30T06:40:29.328Z,18.87
2019-04-30T06:43:00.642Z,19.09
2019-04-30T06:45:31.028Z,19.20
2019-04-30T06:48:03.022Z,19.17
2019-04-30T06:50:31.732Z,19.17
2019-04-30T06:53:01.616Z,19.09
2019-04-30T06:55:31.014Z,18.57
2019-04-30T06:58:11.468Z,18.73
2019-04-30T07:00:40.497Z,18.57
2019-04-30T07:03:09.793Z,18.43
2019-04-30T07:05:39.096Z,18.13
2019-04-30T07:08:37.383Z,18.13
2019-04-30T07:11:16.485Z,18.12
2019-04-30T07:13:46.804Z,18.21
2019-04-30T07:16:15.513Z,18.02
2019-04-30T07:18:44.218Z,18.36
2019-04-30T07:21:13.014Z,18.11
2019-04-30T07:23:41.720Z,18.39
2019-04-30T07:26:13.855Z,18.34
2019-04-30T07:28:46.982Z,18.31
2019-04-30T07:31:14.421Z,18.18
2019-04-30T07:33:41.797Z,18.19
2019-04-30T07:36:10.480Z,18.06
2019-04-30T07:38:45.767Z,18.23
2019-04-30T07:41:09.750Z,18.29
2019-04-30T07:43:39.331Z,18.29
2019-04-30T07:46:09.326Z,18.17
2019-04-30T07:48:40.285Z,18.35
2019-04-30T07:51:10.407Z,18.56
2019-04-30T07:53:40.443Z,18.55
2019-04-30T07:56:24.438Z,18.76
2019-04-30T07:58:39.826Z,18.62
2019-04-30T08:01:10.375Z,18.52
2019-04-30T08:03:59.048Z,18.74
2019-04-30T08:06:30.881Z,18.88
2019-04-30T08:09:00.806Z,19.14
2019-04-30T08:11:29.601Z,18.87
2019-04-30T08:13:58.930Z,19.26
2019-04-30T08:16:28.801Z,19.57
2019-04-30T08:18:59.166Z,19.49
2019-04-30T08:21:28.760Z,19.43
2019-04-30T08:23:59.360Z,19.34
2019-04-30T08:26:28.655Z,19.69
2019-04-30T08:28:59.629Z,20.05
2019-04-30T08:31:29.199Z,19.79
2019-04-30T08:33:59.151Z,19.71
2019-04-30T08:36:29.824Z,19.99
2019-04-30T08:38:59.661Z,19.86
2019-04-30T08:41:29.224Z,19.97
2019-04-30T08:43:59.842Z,19.95
2019-04-30T08:46:28.760Z,19.99
2019-04-30T08:48:58.744Z,20.38
2019-04-30T08:51:28.882Z,20.32
2019-04-30T08:53:58.716Z,20.24
2019-04-30T08:56:29.550Z,19.99
2019-04-30T08:58:59.394Z,19.83
2019-04-30T09:01:29.444Z,20.07
2019-04-30T09:03:59.653Z,20.65
2019-04-30T09:06:29.932Z,20.49
2019-04-30T09:08:59.438Z,20.42
2019-04-30T09:11:35.499Z,20.70
2019-04-30T09:13:58.629Z,20.52
2019-04-30T09:16:29.319Z,20.74
2019-04-30T09:18:59.514Z,20.36
2019-04-30T09:21:30.036Z,20.55
2019-04-30T09:23:59.420Z,20.75
2019-04-30T09:26:29.047Z,21.12
2019-04-30T09:28:59.283Z,21.39
2019-04-30T09:31:29.633Z,21.32
2019-04-30T09:34:00.812Z,20.95
2019-04-30T09:36:29.359Z,21.17
2019-04-30T09:38:58.764Z,21.58
2019-04-30T09:41:28.908Z,21.40
2019-04-30T09:43:59.676Z,21.20
2019-04-30T09:46:29.915Z,21.60
2019-04-30T09:48:59.804Z,21.88
2019-04-30T09:51:30.664Z,22.01
2019-04-30T09:54:02.403Z,22.03
2019-04-30T09:56:29.613Z,22.13
2019-04-30T09:58:59.263Z,22.52
2019-04-30T10:01:28.157Z,22.88
2019-04-30T10:03:57.347Z,22.97
2019-04-30T10:06:39.054Z,22.78
2019-04-30T10:08:59.586Z,23.03
2019-04-30T10:11:29.789Z,23.32
2019-04-30T10:13:58.493Z,22.96
2019-04-30T10:16:29.626Z,22.67
2019-04-30T10:18:59.231Z,22.96
2019-04-30T10:21:29.089Z,22.87
2019-04-30T10:24:11.232Z,23.29
2019-04-30T10:26:28.277Z,23.26
2019-04-30T10:28:56.988Z,23.19
2019-04-30T10:31:25.706Z,23.47
2019-04-30T10:33:54.417Z,22.97
2019-04-30T10:36:23.184Z,23.07
2019-04-30T10:38:51.879Z,23.22
2019-04-30T10:41:20.632Z,23.72
2019-04-30T10:43:49.427Z,23.67
2019-04-30T10:46:18.223Z,23.85
2019-04-30T10:48:46.976Z,23.98
2019-04-30T10:51:15.691Z,24.32
2019-04-30T10:53:44.400Z,24.77
2019-04-30T10:56:13.124Z,24.91
2019-04-30T10:58:41.842Z,24.83
2019-04-30T11:01:10.585Z,25.10
2019-04-30T11:03:39.298Z,25.63
2019-04-30T11:06:08.649Z,25.76
2019-04-30T11:08:37.523Z,25.85
2019-04-30T11:11:06.457Z,25.96
2019-04-30T11:13:35.227Z,25.44
2019-04-30T11:16:12.553Z,24.48
2019-04-30T11:18:34.611Z,24.44
2019-04-30T11:21:03.613Z,24.71
2019-04-30T11:23:32.662Z,25.12
2019-04-30T11:26:02.255Z,25.28
2019-04-30T11:28:31.675Z,25.54
2019-04-30T11:31:17.397Z,25.74
2019-04-30T11:33:46.656Z,25.74
2019-04-30T11:36:15.598Z,25.90
2019-04-30T11:38:44.316Z,26.32
2019-04-30T11:41:13.124Z,26.20
2019-04-30T11:43:41.879Z,26.24
2019-04-30T11:46:25.570Z,26.05
2019-04-30T11:48:54.929Z,26.19
2019-04-30T11:51:23.637Z,26.36
2019-04-30T11:53:52.447Z,26.30
2019-04-30T11:56:21.163Z,26.14
2019-04-30T11:58:49.875Z,26.28
2019-04-30T12:01:26.372Z,26.30
2019-04-30T12:03:55.087Z,26.11
2019-04-30T12:06:23.828Z,26.28
2019-04-30T12:08:56.716Z,26.65
2019-04-30T12:11:38.905Z,26.65
2019-04-30T12:14:07.812Z,26.49
2019-04-30T12:16:36.621Z,26.47
2019-04-30T12:19:05.444Z,26.32
2019-04-30T12:21:34.156Z,25.92
2019-04-30T12:24:02.919Z,25.67
2019-04-30T12:26:31.618Z,25.38
2019-04-30T12:29:00.324Z,25.46
2019-04-30T12:31:29.742Z,25.56
2019-04-30T12:33:58.526Z,25.35
2019-04-30T12:36:28.928Z,25.62
2019-04-30T12:38:57.771Z,25.41
2019-04-30T12:41:26.476Z,25.40
2019-04-30T12:43:55.191Z,25.29
2019-04-30T12:46:23.900Z,24.53
2019-04-30T12:48:54.189Z,24.33
2019-04-30T12:51:30.537Z,24.31
2019-04-30T12:54:06.837Z,23.99
2019-04-30T12:56:40.092Z,23.76
2019-04-30T12:59:08.820Z,23.26
2019-04-30T13:01:39.758Z,22.90
2019-04-30T13:04:09.817Z,22.47
2019-04-30T13:06:39.008Z,22.74
2019-04-30T13:09:10.768Z,23.01
2019-04-30T13:11:40.964Z,23.10
2019-04-30T13:14:11.062Z,23.27
2019-04-30T13:16:40.227Z,23.48
2019-04-30T13:19:09.355Z,23.54
2019-04-30T13:21:39.544Z,23.58
2019-04-30T13:24:08.545Z,23.61
2019-04-30T13:26:37.279Z,23.73
2019-04-30T13:29:07.555Z,23.57
2019-04-30T13:31:36.266Z,23.39
2019-04-30T13:34:22.960Z,23.21
2019-04-30T13:36:51.660Z,23.39
2019-04-30T13:39:31.035Z,23.59
2019-04-30T13:42:15.910Z,23.82
2019-04-30T13:44:39.464Z,23.98
2019-04-30T13:47:10.652Z,23.89
2019-04-30T13:49:39.484Z,23.90
2019-04-30T13:52:08.262Z,24.13
2019-04-30T13:54:36.975Z,24.31
2019-04-30T13:57:05.687Z,24.38
2019-04-30T13:59:34.399Z,24.35
2019-04-30T14:02:03.116Z,24.16
2019-04-30T14:04:45.611Z,23.94
2019-04-30T14:07:15.902Z,23.93
2019-04-30T14:09:44.807Z,24.18
2019-04-30T14:12:13.519Z,24.30
2019-04-30T14:14:42.227Z,24.37
2019-04-30T14:17:10.969Z,24.36
2019-04-30T14:19:39.776Z,24.34
2019-04-30T14:22:09.029Z,24.17
2019-04-30T14:24:37.785Z,24.18
2019-04-30T14:27:06.494Z,24.19
2019-04-30T14:29:35.205Z,23.99
2019-04-30T14:32:03.915Z,23.93
2019-04-30T14:34:32.664Z,23.79
2019-04-30T14:37:01.370Z,23.68
2019-04-30T14:39:30.257Z,23.60
2019-04-30T14:42:00.075Z,23.22
2019-04-30T14:44:34.355Z,23.18
2019-04-30T14:47:05.258Z,23.01
2019-04-30T14:50:01.293Z,22.75
2019-04-30T14:52:21.293Z,22.77
2019-04-30T14:55:06.259Z,22.77
2019-04-30T14:57:39.251Z,22.78
2019-04-30T15:00:26.141Z,22.65
2019-04-30T15:02:58.545Z,22.64
2019-04-30T15:05:38.585Z,22.36
2019-04-30T15:07:59.366Z,21.94
2019-04-30T15:10:27.839Z,21.44
2019-04-30T15:12:56.549Z,21.23
2019-04-30T15:15:25.357Z,21.16
2019-04-30T15:17:54.063Z,21.01
2019-04-30T15:20:22.780Z,20.91
2019-04-30T15:23:09.431Z,20.84
2019-04-30T15:25:38.820Z,20.85
2019-04-30T15:28:07.523Z,20.95
2019-04-30T15:30:36.269Z,20.98
2019-04-30T15:33:23.051Z,20.94
2019-04-30T15:35:51.805Z,20.96
2019-04-30T15:38:22.083Z,20.86
2019-04-30T15:40:50.794Z,20.92
2019-04-30T15:43:19.513Z,20.89
2019-04-30T15:45:49.396Z,20.85
2019-04-30T15:48:19.629Z,20.60
2019-04-30T15:50:49.281Z,20.56
2019-04-30T15:53:19.358Z,20.64
2019-04-30T15:55:48.302Z,20.52
2019-04-30T15:58:18.582Z,20.61
2019-04-30T16:00:49.268Z,20.63
2019-04-30T16:03:22.345Z,20.63
2019-04-30T16:05:57.025Z,20.68
2019-04-30T16:08:29.063Z,20.73
2019-04-30T16:11:07.267Z,20.72
2019-04-30T16:13:49.960Z,20.81
2019-04-30T16:16:19.200Z,20.80
2019-04-30T16:18:49.615Z,20.80
2019-04-30T16:21:19.350Z,20.75
2019-04-30T16:23:49.091Z,20.68
2019-04-30T16:26:17.965Z,20.71
2019-04-30T16:28:46.801Z,20.71
2019-04-30T16:31:15.510Z,20.66
2019-04-30T16:33:44.212Z,20.61
2019-04-30T16:36:12.925Z,20.16
2019-04-30T16:38:41.633Z,20.20
2019-04-30T16:41:10.408Z,20.27
2019-04-30T16:43:39.130Z,20.22
2019-04-30T16:46:07.836Z,20.21
2019-04-30T16:48:36.553Z,20.11
2019-04-30T16:51:05.266Z,19.85
2019-04-30T16:53:34.331Z,19.52
2019-04-30T16:56:03.043Z,19.24
2019-04-30T16:58:33.330Z,19.00
2019-04-30T17:01:03.618Z,18.87
2019-04-30T17:03:38.713Z,18.81
2019-04-30T17:06:11.821Z,18.79
2019-04-30T17:08:42.109Z,18.74
2019-04-30T17:11:12.394Z,18.79
2019-04-30T17:13:42.679Z,18.82
2019-04-30T17:16:15.775Z,18.90
2019-04-30T17:18:44.504Z,18.83
2019-04-30T17:21:13.262Z,18.44
2019-04-30T17:23:41.985Z,18.07
2019-04-30T17:26:10.693Z,18.01
2019-04-30T17:28:39.419Z,17.89
2019-04-30T17:31:09.726Z,17.66
2019-04-30T17:33:38.669Z,17.50
2019-04-30T17:36:10.914Z,17.32
2019-04-30T17:38:38.756Z,17.29
2019-04-30T17:41:07.467Z,17.29
2019-04-30T17:43:36.176Z,17.40
2019-04-30T17:46:04.946Z,17.55
2019-04-30T17:48:33.665Z,17.64
2019-04-30T17:51:02.420Z,17.66
2019-04-30T17:53:32.189Z,17.82
2019-04-30T17:56:00.912Z,17.85
2019-04-30T17:58:29.690Z,17.98
2019-04-30T18:01:00.192Z,18.12
2019-04-30T18:03:29.012Z,18.07
2019-04-30T18:05:59.176Z,18.02
2019-04-30T18:08:28.456Z,17.97
2019-04-30T18:10:57.201Z,18.06
2019-04-30T18:13:25.926Z,18.19
2019-04-30T18:15:54.633Z,18.43
2019-04-30T18:18:24.916Z,18.49
2019-04-30T18:20:56.899Z,18.57
2019-04-30T18:23:36.451Z,18.68
2019-04-30T18:26:16.040Z,18.65
2019-04-30T18:28:44.767Z,18.43
2019-04-30T18:31:13.493Z,18.35
2019-04-30T18:33:42.233Z,18.25
2019-04-30T18:36:10.958Z,18.31
2019-04-30T18:38:40.378Z,18.34
2019-04-30T18:41:09.532Z,18.39
2019-04-30T18:43:40.371Z,18.42
2019-04-30T18:46:10.736Z,18.41
2019-04-30T18:48:39.427Z,18.36
2019-04-30T18:51:23.787Z,18.45
2019-04-30T18:53:39.705Z,18.58
2019-04-30T18:56:14.276Z,18.57
2019-04-30T18:58:42.610Z,18.61
2019-04-30T19:01:10.012Z,18.65
2019-04-30T19:03:39.131Z,18.62
2019-04-30T19:06:22.246Z,18.54
2019-04-30T19:08:44.874Z,18.56
2019-04-30T19:11:33.315Z,18.50
2019-04-30T19:14:20.174Z,18.56
2019-04-30T19:17:06.928Z,18.35
2019-04-30T19:19:40.353Z,18.38
2019-04-30T19:22:09.205Z,18.26
2019-04-30T19:24:37.962Z,18.29
2019-04-30T19:27:08.691Z,18.16
2019-04-30T19:29:37.468Z,18.24
2019-04-30T19:32:06.185Z,18.28
2019-04-30T19:34:34.900Z,18.26
2019-04-30T19:37:03.667Z,18.31
2019-04-30T19:39:32.611Z,18.22
2019-04-30T19:42:01.372Z,18.28
2019-04-30T19:44:30.168Z,18.19
2019-04-30T19:46:58.901Z,18.08
2019-04-30T19:49:27.602Z,17.98
2019-04-30T19:52:06.244Z,17.89
2019-04-30T19:54:26.793Z,17.78
2019-04-30T19:56:55.543Z,17.74
2019-04-30T19:59:24.261Z,17.72
2019-04-30T20:01:53.000Z,17.67
2019-04-30T20:04:32.809Z,17.47
2019-04-30T20:06:52.167Z,17.42
2019-04-30T20:09:20.885Z,17.30
2019-04-30T20:11:49.789Z,16.97
2019-04-30T20:14:18.765Z,16.69
2019-04-30T20:16:48.712Z,16.52
2019-04-30T20:19:17.659Z,16.42
2019-04-30T20:21:53.104Z,16.34
2019-04-30T20:24:16.797Z,16.26
2019-04-30T20:26:45.680Z,16.17
2019-04-30T20:29:14.385Z,16.16
2019-04-30T20:31:43.182Z,16.16
2019-04-30T20:34:11.900Z,16.11
2019-04-30T20:36:40.617Z,15.99
2019-04-30T20:39:10.909Z,16.10
2019-04-30T20:41:39.652Z,16.04
2019-04-30T20:44:08.729Z,16.00
2019-04-30T20:46:39.322Z,15.81
2019-04-30T20:49:09.183Z,15.81
2019-04-30T20:51:40.165Z,15.73
2019-04-30T20:54:09.117Z,15.68
2019-04-30T20:56:38.982Z,15.69
2019-04-30T20:59:10.591Z,15.62
2019-04-30T21:01:39.770Z,15.52
2019-04-30T21:04:08.527Z,15.48
2019-04-30T21:06:39.065Z,15.37
2019-04-30T21:09:08.225Z,15.21
2019-04-30T21:11:38.566Z,15.26
2019-04-30T21:14:08.923Z,15.27
2019-04-30T21:16:37.862Z,15.27
2019-04-30T21:19:06.772Z,15.27
2019-04-30T21:21:35.483Z,15.19
2019-04-30T21:24:04.334Z,15.19
2019-04-30T21:26:33.040Z,15.06
2019-04-30T21:31:36.521Z,15.14
2019-04-30T21:34:19.629Z,15.09
2019-04-30T21:34:41.297Z,15.15
2019-04-30T21:36:49.598Z,15.01
2019-04-30T21:39:20.159Z,14.95
2019-04-30T21:41:49.415Z,14.98
2019-04-30T21:44:18.671Z,15.02
2019-04-30T21:46:47.485Z,14.90
2019-04-30T21:49:16.207Z,14.93
2019-04-30T21:51:45.035Z,14.94
2019-04-30T21:54:13.706Z,14.92
2019-04-30T21:56:42.457Z,14.90
2019-04-30T21:59:23.738Z,14.92
2019-04-30T22:01:43.409Z,14.93
2019-04-30T22:04:12.236Z,14.87
2019-04-30T22:06:40.972Z,14.73
2019-04-30T22:09:11.093Z,14.83
2019-04-30T22:11:39.854Z,14.73
2019-04-30T22:14:08.566Z,14.65
2019-04-30T22:16:39.615Z,14.59
2019-04-30T22:19:07.769Z,14.61
2019-04-30T22:21:36.650Z,14.61
2019-04-30T22:24:05.457Z,14.51
2019-04-30T22:26:34.571Z,14.42
2019-04-30T22:29:03.384Z,14.38
2019-04-30T22:31:32.236Z,14.37
2019-04-30T22:34:00.942Z,14.34
2019-04-30T22:36:34.020Z,14.31
2019-04-30T22:39:20.474Z,14.32
2019-04-30T22:41:49.355Z,14.32
2019-04-30T22:44:18.178Z,14.31
2019-04-30T22:46:49.150Z,14.27
2019-04-30T22:49:17.521Z,14.21
2019-04-30T22:51:46.275Z,14.02
2019-04-30T22:54:46.024Z,14.09
2019-04-30T22:57:14.725Z,14.11
2019-04-30T22:59:49.751Z,14.04
2019-04-30T23:02:31.729Z,14.00
2019-04-30T23:05:02.325Z,14.01
2019-04-30T23:07:31.005Z,13.93
2019-04-30T23:09:59.718Z,13.95
2019-04-30T23:12:28.495Z,13.95
2019-04-30T23:14:57.202Z,13.88
2019-04-30T23:17:25.903Z,13.88
2019-04-30T23:19:54.622Z,13.83
2019-04-30T23:22:23.334Z,13.82
2019-04-30T23:24:52.081Z,13.78
2019-04-30T23:27:20.810Z,13.72
2019-04-30T23:30:02.505Z,13.54
2019-04-30T23:32:19.992Z,13.26
2019-04-30T23:34:48.690Z,13.05
2019-04-30T23:37:17.398Z,13.02
2019-04-30T23:39:46.145Z,12.99
2019-04-30T23:42:14.823Z,12.91
2019-04-30T23:44:43.539Z,12.71
2019-04-30T23:47:12.256Z,12.59
2019-04-30T23:49:41.017Z,12.34
2019-04-30T23:52:09.726Z,12.37
2019-04-30T23:54:38.427Z,12.28
2019-04-30T23:57:07.152Z,12.25
2019-04-30T23:59:35.856Z,12.16
